createdAt,value
2018-07-11T00:02:15.707Z,102208.10
2018-07-11T00:04:44.535Z,102207.19
2018-07-11T00:07:13.178Z,102208.83
2018-07-11T00:09:41.982Z,102209.44
2018-07-11T00:12:10.668Z,102209.09
2018-07-11T00:14:39.659Z,102213.86
2018-07-11T00:17:13.399Z,102204.89
2018-07-11T00:19:42.161Z,102210.53
2018-07-11T00:22:10.834Z,102205.61
2018-07-11T00:24:39.641Z,102211.00
2018-07-11T00:27:08.208Z,102211.12
2018-07-11T00:29:36.795Z,102212.28
2018-07-11T00:32:05.585Z,102213.61
2018-07-11T00:34:34.255Z,102219.80
2018-07-11T00:37:02.932Z,102217.72
2018-07-11T00:39:31.694Z,102211.66
2018-07-11T00:42:00.438Z,102212.34
2018-07-11T00:44:29.065Z,102212.48
2018-07-11T00:46:57.749Z,102216.77
2018-07-11T00:49:26.402Z,102219.48
2018-07-11T00:51:55.067Z,102215.63
2018-07-11T00:54:23.755Z,102213.63
2018-07-11T00:56:52.512Z,102218.48
2018-07-11T00:59:27.672Z,102213.95
2018-07-11T01:02:03.080Z,102212.54
2018-07-11T01:04:31.955Z,102211.91
2018-07-11T01:07:02.607Z,102206.92
2018-07-11T01:09:33.018Z,102208.92
2018-07-11T01:12:01.734Z,102205.95
2018-07-11T01:14:30.389Z,102210.95
2018-07-11T01:16:59.109Z,102211.16
2018-07-11T01:19:28.226Z,102210.35
2018-07-11T01:22:03.597Z,102211.44
2018-07-11T01:24:32.687Z,102209.34
2018-07-11T01:27:01.655Z,102212.97
2018-07-11T01:29:30.289Z,102212.39
2018-07-11T01:31:58.942Z,102215.16
2018-07-11T01:34:27.588Z,102208.97
2018-07-11T01:36:56.305Z,102213.67
2018-07-11T01:39:24.969Z,102209.77
2018-07-11T01:41:53.619Z,102213.24
2018-07-11T01:44:22.339Z,102218.44
2018-07-11T01:46:52.161Z,102214.88
2018-07-11T01:49:21.598Z,102216.97
2018-07-11T01:52:01.326Z,102216.97
2018-07-11T01:54:30.056Z,102221.25
2018-07-11T01:56:58.697Z,102220.67
2018-07-11T01:59:31.998Z,102219.44
2018-07-11T02:02:00.696Z,102226.14
2018-07-11T02:04:29.331Z,102221.81
2018-07-11T02:06:57.979Z,102220.96
2018-07-11T02:09:26.867Z,102220.02
2018-07-11T02:11:55.592Z,102219.25
2018-07-11T02:14:24.590Z,102216.44
2018-07-11T02:16:53.497Z,102212.06
2018-07-11T02:19:22.938Z,102213.87
2018-07-11T02:21:52.261Z,102209.55
2018-07-11T02:24:21.788Z,102210.53
2018-07-11T02:26:50.593Z,102206.30
2018-07-11T02:29:19.477Z,102210.58
2018-07-11T02:31:48.191Z,102212.87
2018-07-11T02:34:16.807Z,102214.10
2018-07-11T02:36:45.471Z,102209.49
2018-07-11T02:39:14.069Z,102217.77
2018-07-11T02:41:42.654Z,102217.58
2018-07-11T02:44:11.577Z,102219.33
2018-07-11T02:46:45.251Z,102217.52
2018-07-11T02:49:13.839Z,102223.10
2018-07-11T02:51:42.526Z,102217.52
2018-07-11T02:54:11.397Z,102222.76
2018-07-11T02:56:40.156Z,102222.05
2018-07-11T02:59:08.819Z,102224.28
2018-07-11T03:01:37.528Z,102222.70
2018-07-11T03:04:06.179Z,102219.33
2018-07-11T03:06:34.922Z,102228.84
2018-07-11T03:09:04.048Z,102226.80
2018-07-11T03:11:32.830Z,102228.88
2018-07-11T03:14:01.542Z,102222.63
2018-07-11T03:16:30.154Z,102227.63
2018-07-11T03:18:58.873Z,102225.17
2018-07-11T03:21:27.511Z,102225.80
2018-07-11T03:23:56.117Z,102218.30
2018-07-11T03:26:24.926Z,102225.80
2018-07-11T03:28:53.650Z,102220.35
2018-07-11T03:31:22.303Z,102221.45
2018-07-11T03:33:50.974Z,102229.25
2018-07-11T03:36:19.686Z,102226.17
2018-07-11T03:38:48.276Z,102225.45
2018-07-11T03:41:16.905Z,102228.80
2018-07-11T03:43:45.576Z,102227.64
2018-07-11T03:46:14.218Z,102225.03
2018-07-11T03:48:42.855Z,102223.36
2018-07-11T03:51:11.485Z,102224.48
2018-07-11T03:53:40.179Z,102218.83
2018-07-11T03:56:08.752Z,102222.28
2018-07-11T03:58:37.368Z,102222.06
2018-07-11T04:01:06.047Z,102217.58
2018-07-11T04:03:34.704Z,102219.97
2018-07-11T04:06:03.365Z,102215.18
2018-07-11T04:08:32.025Z,102215.00
2018-07-11T04:11:00.837Z,102223.41
2018-07-11T04:13:29.636Z,102213.20
2018-07-11T04:15:58.348Z,102217.23
2018-07-11T04:18:29.887Z,102216.91
2018-07-11T04:20:59.661Z,102216.62
2018-07-11T04:23:28.743Z,102218.44
2018-07-11T04:25:57.583Z,102219.45
2018-07-11T04:28:27.351Z,102222.02
2018-07-11T04:30:56.287Z,102225.31
2018-07-11T04:33:25.107Z,102222.64
2018-07-11T04:35:54.636Z,102221.64
2018-07-11T04:38:23.450Z,102214.01
2018-07-11T04:40:52.160Z,102215.11
2018-07-11T04:43:20.982Z,102211.45
2018-07-11T04:45:49.870Z,102213.89
2018-07-11T04:48:20.192Z,102215.43
2018-07-11T04:50:49.713Z,102212.27
2018-07-11T04:53:26.046Z,102206.56
2018-07-11T04:55:58.936Z,102214.66
2018-07-11T04:58:28.015Z,102213.02
2018-07-11T05:00:57.252Z,102212.36
2018-07-11T05:03:26.358Z,102217.05
2018-07-11T05:05:55.168Z,102216.52
2018-07-11T05:08:24.705Z,102213.25
2018-07-11T05:10:53.579Z,102211.83
2018-07-11T05:13:22.607Z,102217.20
2018-07-11T05:15:51.228Z,102219.41
2018-07-11T05:18:19.859Z,102211.74
2018-07-11T05:20:48.510Z,102214.11
2018-07-11T05:23:17.248Z,102208.27
2018-07-11T05:25:45.972Z,102213.98
2018-07-11T05:28:14.666Z,102216.41
2018-07-11T05:30:43.357Z,102213.45
2018-07-11T05:33:12.026Z,102211.01
2018-07-11T05:35:40.687Z,102213.33
2018-07-11T05:38:09.292Z,102205.70
2018-07-11T05:40:38.006Z,102204.23
2018-07-11T05:43:06.768Z,102201.69
2018-07-11T05:45:35.444Z,102205.91
2018-07-11T05:48:04.134Z,102206.27
2018-07-11T05:50:32.774Z,102202.50
2018-07-11T05:53:01.493Z,102208.14
2018-07-11T05:55:30.171Z,102207.77
2018-07-11T05:57:58.810Z,102202.02
2018-07-11T06:00:27.636Z,102207.83
2018-07-11T06:02:56.377Z,102204.90
2018-07-11T06:05:25.210Z,102204.91
2018-07-11T06:07:53.867Z,102197.97
2018-07-11T06:10:22.442Z,102199.98
2018-07-11T06:12:51.093Z,102192.73
2018-07-11T06:15:19.783Z,102193.97
2018-07-11T06:17:48.529Z,102193.56
2018-07-11T06:20:17.283Z,102193.83
2018-07-11T06:22:45.867Z,102189.91
2018-07-11T06:25:14.542Z,102186.64
2018-07-11T06:27:43.221Z,102190.22
2018-07-11T06:30:12.076Z,102196.59
2018-07-11T06:32:40.722Z,102200.86
2018-07-11T06:35:09.498Z,102199.59
2018-07-11T06:37:38.072Z,102191.06
2018-07-11T06:40:06.885Z,102198.52
2018-07-11T06:42:35.803Z,102192.67
2018-07-11T06:45:04.439Z,102185.69
2018-07-11T06:47:33.115Z,102192.41
2018-07-11T06:50:01.759Z,102194.81
2018-07-11T06:52:30.397Z,102195.87
2018-07-11T06:54:59.179Z,102196.08
2018-07-11T06:57:27.878Z,102194.58
2018-07-11T06:59:56.551Z,102196.66
2018-07-11T07:02:25.462Z,102192.98
2018-07-11T07:04:54.067Z,102189.31
2018-07-11T07:07:22.697Z,102189.54
2018-07-11T07:09:51.326Z,102191.92
2018-07-11T07:12:19.974Z,102190.59
2018-07-11T07:14:48.531Z,102190.27
2018-07-11T07:17:17.425Z,102188.42
2018-07-11T07:19:46.107Z,102192.87
2018-07-11T07:22:14.923Z,102056.02
2018-07-11T07:24:43.563Z,102188.83
2018-07-11T07:27:12.203Z,102189.34
2018-07-11T07:29:40.997Z,102191.55
2018-07-11T07:32:09.603Z,102194.25
2018-07-11T07:34:38.314Z,102187.97
2018-07-11T07:37:06.964Z,102191.56
2018-07-11T07:39:35.678Z,102193.73
2018-07-11T07:42:04.385Z,102183.58
2018-07-11T07:44:33.065Z,102182.00
2018-07-11T07:47:02.340Z,102185.19
2018-07-11T07:49:32.650Z,102179.41
2018-07-11T07:52:01.466Z,102186.84
2018-07-11T07:54:30.199Z,102183.81
2018-07-11T07:56:58.903Z,102179.92
2018-07-11T07:59:27.715Z,102186.81
2018-07-11T08:01:56.798Z,102188.70
2018-07-11T08:04:25.559Z,102185.28
2018-07-11T08:06:54.269Z,102183.77
2018-07-11T08:09:22.935Z,102184.78
2018-07-11T08:11:51.598Z,102185.25
2018-07-11T08:14:20.262Z,102176.33
2018-07-11T08:16:49.243Z,102175.05
2018-07-11T08:19:17.941Z,102173.75
2018-07-11T08:21:46.590Z,102172.49
2018-07-11T08:24:26.205Z,102178.43
2018-07-11T08:27:25.518Z,102170.75
2018-07-11T08:30:05.689Z,102167.52
2018-07-11T08:32:49.159Z,102170.78
2018-07-11T08:35:46.596Z,102169.09
2018-07-11T08:38:31.500Z,102172.20
2018-07-11T08:41:21.389Z,102168.13
2018-07-11T08:44:03.292Z,102166.82
2018-07-11T08:46:43.000Z,102165.92
2018-07-11T08:53:27.543Z,102164.05
2018-07-11T08:56:12.420Z,102164.62
2018-07-11T09:00:55.979Z,102166.53
2018-07-11T09:04:00.832Z,102168.94
2018-07-11T09:08:41.363Z,102160.05
2018-07-11T09:13:27.949Z,102159.64
2018-07-11T09:16:08.658Z,102155.89
2018-07-11T09:18:58.484Z,102156.73
2018-07-11T09:21:43.755Z,102154.63
2018-07-11T09:24:22.418Z,102154.17
2018-07-11T09:26:51.163Z,102144.38
2018-07-11T09:29:19.762Z,102147.55
2018-07-11T09:31:48.361Z,102148.65
2018-07-11T09:34:17.083Z,102141.13
2018-07-11T09:36:45.862Z,102145.95
2018-07-11T09:39:14.538Z,102144.60
2018-07-11T09:41:43.273Z,102144.84
2018-07-11T09:44:11.881Z,102144.06
2018-07-11T09:46:40.710Z,102144.99
2018-07-11T09:49:09.550Z,102149.81
2018-07-11T09:51:38.314Z,102136.75
2018-07-11T09:54:07.045Z,102144.15
2018-07-11T09:56:35.673Z,102143.66
2018-07-11T09:59:04.522Z,102143.11
2018-07-11T10:01:33.212Z,102145.91
2018-07-11T10:04:02.197Z,102140.44
2018-07-11T10:06:31.018Z,102143.70
2018-07-11T10:09:00.225Z,102140.08
2018-07-11T10:11:29.019Z,102138.47
2018-07-11T10:13:57.680Z,102134.67
2018-07-11T10:16:26.370Z,102139.13
2018-07-11T10:19:02.412Z,102134.95
2018-07-11T10:21:31.953Z,102133.26
2018-07-11T10:24:00.921Z,102132.34
2018-07-11T10:26:29.727Z,102128.64
2018-07-11T10:28:58.443Z,102130.99
2018-07-11T10:31:27.969Z,102128.50
2018-07-11T10:33:56.543Z,102129.27
2018-07-11T10:36:25.118Z,102123.48
2018-07-11T10:38:53.763Z,102132.09
2018-07-11T10:41:22.470Z,102126.50
2018-07-11T10:43:51.190Z,102128.77
2018-07-11T10:46:19.934Z,102128.28
2018-07-11T10:48:48.541Z,102134.51
2018-07-11T10:51:17.218Z,102128.81
2018-07-11T10:53:45.873Z,102124.66
2018-07-11T10:56:14.828Z,102121.62
2018-07-11T10:58:43.506Z,102122.35
2018-07-11T11:01:12.210Z,102120.58
2018-07-11T11:03:40.916Z,102113.86
2018-07-11T11:06:09.578Z,102113.26
2018-07-11T11:08:38.286Z,102116.62
2018-07-11T11:11:06.882Z,102114.89
2018-07-11T11:13:35.639Z,102108.41
2018-07-11T11:16:04.298Z,102105.09
2018-07-11T11:18:32.967Z,102107.63
2018-07-11T11:21:01.697Z,102107.81
2018-07-11T11:23:30.363Z,102101.20
2018-07-11T11:25:58.950Z,102100.77
2018-07-11T11:28:27.896Z,102097.84
2018-07-11T11:30:56.595Z,102105.84
2018-07-11T11:33:25.297Z,102099.27
2018-07-11T11:35:54.173Z,102101.05
2018-07-11T11:38:22.762Z,102099.33
2018-07-11T11:40:51.470Z,102098.75
2018-07-11T11:43:20.122Z,102093.84
2018-07-11T11:45:48.767Z,102092.70
2018-07-11T11:48:17.418Z,102089.41
2018-07-11T11:50:46.042Z,102088.73
2018-07-11T11:53:14.886Z,102096.06
2018-07-11T11:55:43.685Z,102085.62
2018-07-11T11:58:12.346Z,102087.17
2018-07-11T12:00:41.276Z,102084.97
2018-07-11T12:03:09.886Z,102084.13
2018-07-11T12:05:38.619Z,102080.45
2018-07-11T12:08:07.446Z,102088.23
2018-07-11T12:10:36.298Z,102081.66
2018-07-11T12:13:04.899Z,102074.75
2018-07-11T12:15:33.588Z,102077.09
2018-07-11T12:18:02.257Z,102074.97
2018-07-11T12:20:30.828Z,102075.32
2018-07-11T12:22:59.547Z,102066.16
2018-07-11T12:25:28.216Z,102061.74
2018-07-11T12:27:56.833Z,102061.25
2018-07-11T12:30:25.471Z,102063.38
2018-07-11T12:32:54.140Z,102068.31
2018-07-11T12:35:22.799Z,102053.87
2018-07-11T12:37:51.755Z,102054.02
2018-07-11T12:40:20.399Z,102046.09
2018-07-11T12:42:49.023Z,102044.44
2018-07-11T12:45:17.717Z,102052.73
2018-07-11T12:47:51.488Z,102044.76
2018-07-11T12:50:20.221Z,102048.78
2018-07-11T12:52:48.877Z,102039.91
2018-07-11T12:55:17.535Z,102044.88
2018-07-11T12:57:46.226Z,102045.96
2018-07-11T13:00:15.049Z,102038.25
2018-07-11T13:02:43.737Z,102039.28
2018-07-11T13:05:12.458Z,102035.30
2018-07-11T13:07:41.251Z,102038.53
2018-07-11T13:10:10.035Z,102036.77
2018-07-11T13:12:38.673Z,102040.59
2018-07-11T13:15:07.294Z,102032.14
2018-07-11T13:17:35.936Z,102027.31
2018-07-11T13:20:04.683Z,102030.63
2018-07-11T13:22:33.375Z,102024.67
2018-07-11T13:25:01.995Z,102025.91
2018-07-11T13:27:30.755Z,102017.66
2018-07-11T13:29:59.419Z,102027.27
2018-07-11T13:32:31.001Z,102021.23
2018-07-11T13:34:59.578Z,102020.02
2018-07-11T13:37:28.267Z,102016.52
2018-07-11T13:39:56.920Z,102014.30
2018-07-11T13:42:25.558Z,102015.18
2018-07-11T13:44:54.227Z,102007.88
2018-07-11T13:47:26.881Z,102015.67
2018-07-11T13:49:55.959Z,102007.89
2018-07-11T13:52:24.672Z,102003.42
2018-07-11T13:54:54.076Z,102008.91
2018-07-11T13:57:23.227Z,102002.75
2018-07-11T13:59:51.875Z,101995.25
2018-07-11T14:02:20.661Z,101999.98
2018-07-11T14:04:49.522Z,101998.50
2018-07-11T14:07:18.158Z,101996.67
2018-07-11T14:09:46.739Z,101993.36
2018-07-11T14:12:15.621Z,101996.15
2018-07-11T14:14:44.412Z,101987.27
2018-07-11T14:17:12.982Z,101989.06
2018-07-11T14:19:41.666Z,101990.19
2018-07-11T14:22:10.370Z,101985.59
2018-07-11T14:24:39.244Z,101986.15
2018-07-11T14:27:07.961Z,101995.16
2018-07-11T14:29:36.735Z,101991.14
2018-07-11T14:32:05.476Z,101991.90
2018-07-11T14:34:34.102Z,101985.52
2018-07-11T14:37:03.365Z,101993.03
2018-07-11T14:39:32.055Z,101991.73
2018-07-11T14:42:00.864Z,101978.36
2018-07-11T14:44:30.444Z,101981.32
2018-07-11T14:46:59.665Z,101971.47
2018-07-11T14:49:28.500Z,101972.79
2018-07-11T14:51:57.152Z,101968.41
2018-07-11T14:54:25.830Z,101971.73
2018-07-11T14:56:54.681Z,101969.37
2018-07-11T14:59:23.554Z,101960.69
2018-07-11T15:01:52.202Z,101972.24
2018-07-11T15:04:20.771Z,101966.00
2018-07-11T15:06:49.390Z,101961.77
2018-07-11T15:09:18.448Z,101962.98
2018-07-11T15:11:46.851Z,101952.81
2018-07-11T15:14:15.705Z,101958.56
2018-07-11T15:16:44.299Z,101953.89
2018-07-11T15:19:13.037Z,101953.61
2018-07-11T15:21:41.727Z,101955.76
2018-07-11T15:24:10.437Z,101948.19
2018-07-11T15:26:39.205Z,101945.65
2018-07-11T15:29:07.804Z,101950.39
2018-07-11T15:31:36.504Z,101954.91
2018-07-11T15:34:05.255Z,101954.58
2018-07-11T15:36:33.823Z,101950.77
2018-07-11T15:39:02.658Z,101950.48
2018-07-11T15:41:31.348Z,101944.97
2018-07-11T15:44:00.113Z,101947.92
2018-07-11T15:46:29.054Z,101946.75
2018-07-11T15:48:57.686Z,101949.30
2018-07-11T15:51:26.301Z,101947.86
2018-07-11T15:53:55.634Z,101945.23
2018-07-11T15:56:24.404Z,101943.88
2018-07-11T15:59:07.481Z,101946.38
2018-07-11T16:01:44.161Z,101940.55
2018-07-11T16:04:13.090Z,101943.73
2018-07-11T16:06:41.828Z,101948.56
2018-07-11T16:09:10.394Z,101944.55
2018-07-11T16:11:39.062Z,101952.50
2018-07-11T16:14:07.789Z,101950.11
2018-07-11T16:16:36.421Z,101941.73
2018-07-11T16:19:05.094Z,101943.02
2018-07-11T16:21:34.121Z,101925.95
2018-07-11T16:24:02.867Z,101935.72
2018-07-11T16:26:31.729Z,101930.47
2018-07-11T16:29:00.548Z,101930.40
2018-07-11T16:31:29.120Z,101926.45
2018-07-11T16:33:57.767Z,101929.13
2018-07-11T16:36:26.391Z,101931.25
2018-07-11T16:38:55.110Z,101925.85
2018-07-11T16:41:23.756Z,101923.05
2018-07-11T16:43:52.611Z,101925.86
2018-07-11T16:46:21.247Z,101926.03
2018-07-11T16:48:49.970Z,101929.95
2018-07-11T16:51:18.726Z,101924.52
2018-07-11T16:53:47.730Z,101921.43
2018-07-11T16:56:16.433Z,101921.25
2018-07-11T16:58:50.839Z,101925.63
2018-07-11T17:01:19.978Z,101921.15
2018-07-11T17:03:48.607Z,101917.61
2018-07-11T17:06:17.531Z,101920.20
2018-07-11T17:08:51.352Z,101922.84
2018-07-11T17:11:23.124Z,101921.82
2018-07-11T17:13:57.719Z,101916.64
2018-07-11T17:16:34.420Z,101920.23
2018-07-11T17:19:05.710Z,101915.05
2018-07-11T17:21:45.780Z,101916.41
2018-07-11T17:24:16.874Z,101914.22
2018-07-11T17:26:47.373Z,101911.69
2018-07-11T17:29:20.405Z,101911.37
2018-07-11T17:31:51.248Z,101910.89
2018-07-11T17:34:20.380Z,101907.16
2018-07-11T17:36:53.595Z,101909.04
2018-07-11T17:39:22.296Z,101903.47
2018-07-11T17:41:54.379Z,101904.48
2018-07-11T17:44:23.858Z,101903.31
2018-07-11T17:46:52.711Z,101902.13
2018-07-11T17:49:28.531Z,101903.65
2018-07-11T17:52:08.523Z,101897.06
2018-07-11T17:55:13.496Z,101894.37
2018-07-11T17:58:05.489Z,101900.11
2018-07-11T18:00:51.390Z,101902.27
2018-07-11T18:04:32.351Z,101898.89
2018-07-11T18:07:06.460Z,101896.58
2018-07-11T18:09:58.517Z,101891.67
2018-07-11T18:12:34.117Z,101890.64
2018-07-11T18:15:43.886Z,101892.33
2018-07-11T18:20:26.668Z,101898.73
2018-07-11T18:23:06.667Z,101897.03
2018-07-11T18:25:59.628Z,101902.74
2018-07-11T18:28:37.848Z,101897.52
2018-07-11T18:31:16.565Z,101899.52
2018-07-11T18:33:55.210Z,101901.06
2018-07-11T18:36:33.031Z,101897.66
2018-07-11T18:39:14.435Z,101895.11
2018-07-11T18:41:58.407Z,101892.78
2018-07-11T18:46:43.494Z,101888.38
2018-07-11T18:49:27.143Z,101894.63
2018-07-11T18:52:06.812Z,101893.44
2018-07-11T18:55:54.727Z,101892.06
2018-07-11T18:58:37.614Z,101891.41
2018-07-11T19:01:20.062Z,101890.56
2018-07-11T19:06:03.653Z,101896.62
2018-07-11T19:08:45.173Z,101895.38
2018-07-11T19:11:22.394Z,101893.14
2018-07-11T19:13:54.414Z,101898.31
2018-07-11T19:17:04.561Z,101898.58
2018-07-11T19:19:37.566Z,101897.52
2018-07-11T19:22:18.467Z,101904.37
2018-07-11T19:24:58.703Z,101904.33
2018-07-11T19:27:32.869Z,101907.67
2018-07-11T19:30:14.443Z,101903.23
2018-07-11T19:32:54.894Z,101910.05
2018-07-11T19:35:37.465Z,101911.13
2018-07-11T19:38:47.187Z,101913.25
2018-07-11T19:41:25.227Z,101912.89
2018-07-11T19:44:09.859Z,101914.02
2018-07-11T19:47:51.699Z,101910.59
2018-07-11T19:50:38.005Z,101907.98
2018-07-11T19:53:18.120Z,101906.84
2018-07-11T19:56:54.313Z,101905.56
2018-07-11T19:59:22.990Z,101909.64
2018-07-11T20:01:51.688Z,101906.73
2018-07-11T20:04:20.418Z,101904.87
2018-07-11T20:06:49.246Z,101909.34
2018-07-11T20:09:17.897Z,101904.04
2018-07-11T20:11:46.501Z,101905.43
2018-07-11T20:14:15.125Z,101913.41
2018-07-11T20:16:43.841Z,101908.27
2018-07-11T20:19:12.480Z,101907.39
2018-07-11T20:21:41.364Z,101904.41
2018-07-11T20:24:09.974Z,101911.52
2018-07-11T20:26:38.569Z,101901.39
2018-07-11T20:29:07.375Z,101902.52
2018-07-11T20:31:36.096Z,101904.41
2018-07-11T20:34:04.776Z,101906.67
2018-07-11T20:36:33.897Z,101909.19
2018-07-11T20:39:02.574Z,101904.05
2018-07-11T20:41:31.191Z,101903.91
2018-07-11T20:43:59.914Z,101913.75
2018-07-11T20:46:28.599Z,101906.38
2018-07-11T20:48:58.250Z,101906.60
2018-07-11T20:51:26.961Z,101910.05
2018-07-11T20:53:55.606Z,101913.80
2018-07-11T20:56:24.319Z,101904.56
2018-07-11T20:59:03.897Z,101909.70
2018-07-11T21:01:43.476Z,101911.27
2018-07-11T21:06:29.953Z,101914.98
2018-07-11T21:09:12.891Z,101910.45
2018-07-11T21:11:58.014Z,101915.39
2018-07-11T21:16:48.656Z,101907.67
2018-07-11T21:19:17.302Z,101913.69
2018-07-11T21:21:45.982Z,101909.85
2018-07-11T21:24:14.866Z,101909.09
2018-07-11T21:26:43.490Z,101908.06
2018-07-11T21:29:12.116Z,101899.72
2018-07-11T21:31:40.812Z,101899.70
2018-07-11T21:34:09.495Z,101903.30
2018-07-11T21:36:38.140Z,101893.86
2018-07-11T21:39:07.004Z,101895.00
2018-07-11T21:41:35.694Z,101896.40
2018-07-11T21:44:04.379Z,101898.16
2018-07-11T21:46:33.219Z,101904.53
2018-07-11T21:49:01.889Z,101900.77
2018-07-11T21:51:30.495Z,101898.00
2018-07-11T21:53:59.131Z,101898.66
2018-07-11T21:56:27.840Z,101902.06
2018-07-11T21:58:56.414Z,101904.50
2018-07-11T22:01:25.067Z,101904.66
2018-07-11T22:03:53.842Z,101897.75
2018-07-11T22:06:22.551Z,101906.42
2018-07-11T22:08:51.179Z,101895.55
2018-07-11T22:11:19.835Z,101900.42
2018-07-11T22:13:48.598Z,101896.44
2018-07-11T22:16:17.220Z,101894.73
2018-07-11T22:18:46.668Z,101898.77
2018-07-11T22:21:15.123Z,101905.94
2018-07-11T22:23:42.580Z,101903.51
2018-07-11T22:26:09.973Z,101908.84
2018-07-11T22:28:37.353Z,101905.34
2018-07-11T22:31:04.789Z,101902.30
2018-07-11T22:33:32.311Z,101896.84
2018-07-11T22:35:59.812Z,101904.77
2018-07-11T22:38:27.247Z,101906.71
2018-07-11T22:40:54.702Z,101906.58
2018-07-11T22:43:22.173Z,101903.34
2018-07-11T22:45:49.549Z,101904.65
2018-07-11T22:48:16.932Z,101904.06
2018-07-11T22:50:44.340Z,101909.41
2018-07-11T22:53:11.724Z,101904.18
2018-07-11T22:55:39.127Z,101907.34
2018-07-11T22:58:06.547Z,101902.83
2018-07-11T23:00:34.183Z,101905.77
2018-07-11T23:03:01.620Z,101902.22
2018-07-11T23:05:29.019Z,101898.69
2018-07-11T23:07:56.366Z,101900.17
2018-07-11T23:10:23.795Z,101892.20
2018-07-11T23:12:51.229Z,101900.33
2018-07-11T23:15:18.579Z,101894.13
2018-07-11T23:17:46.023Z,101897.75
2018-07-11T23:20:13.423Z,101897.86
2018-07-11T23:22:40.826Z,101893.80
2018-07-11T23:25:08.166Z,101895.51
2018-07-11T23:27:35.522Z,101893.69
2018-07-11T23:30:02.931Z,101891.59
2018-07-11T23:32:30.346Z,101892.66
2018-07-11T23:34:57.685Z,101894.14
2018-07-11T23:37:25.115Z,101888.91
2018-07-11T23:39:52.600Z,101890.25
2018-07-11T23:42:19.999Z,101887.42
2018-07-11T23:44:47.395Z,101879.89
2018-07-11T23:47:14.801Z,101881.91
2018-07-11T23:49:42.180Z,101880.82
2018-07-11T23:52:09.544Z,101880.23
2018-07-11T23:54:36.999Z,101885.52
2018-07-11T23:57:04.379Z,101883.80
2018-07-11T23:59:31.764Z,101888.16
